Weather at El Paso Natural Gas Turbine Station Landing Strip [CLOSED]

Public forecast

Using degrees Fahrenheit for public forecast. Weather courtesy of forecast.io.

Closest aviation weather report (METAR) to El Paso Natural Gas Turbine Station Landing Strip

Closest report is Albuquerque International Sunport, 30.8 nm (57.0 km) N.

2024/07/14 17:52 (retrieved 21 minutes ago)

KABQ 141752Z 23006KT 10SM FEW180 31/07 A3030 RMK AO2 SLP158 CB DSNT NE T03060072 10317 20211 56009

Closest aviation forecast (TAF) to El Paso Natural Gas Turbine Station Landing Strip

Closest forecast is Albuquerque International Sunport, 30.8 nm (57.0 km) N.

2024/07/14 18:48 (retrieved 0 seconds ago)

TAF KABQ 141747Z 1418/1518 VRB05KT P6SM SKC FM150100 13011KT P6SM SCT130 FM150700 09006KT P6SM SKC FM151200 VRB04KT P6SM SKC